sensor_id;sensor_type;location;lat;lon;timestamp;P1;durP1;ratioP1;P2;durP2;ratioP2
14760;SDS011;7472;45.396;5.272;2023-05-27T00:00:11;11.70;;;9.18;;
14760;SDS011;7472;45.396;5.272;2023-05-27T00:02:38;10.50;;;9.52;;
14760;SDS011;7472;45.396;5.272;2023-05-27T00:05:06;12.25;;;9.88;;
14760;SDS011;7472;45.396;5.272;2023-05-27T00:07:33;10.90;;;9.43;;
14760;SDS011;7472;45.396;5.272;2023-05-27T00:10:01;12.02;;;9.68;;
14760;SDS011;7472;45.396;5.272;2023-05-27T00:12:28;10.68;;;9.40;;
14760;SDS011;7472;45.396;5.272;2023-05-27T00:14:57;16.38;;;10.85;;
14760;SDS011;7472;45.396;5.272;2023-05-27T00:17:24;11.27;;;10.02;;
14760;SDS011;7472;45.396;5.272;2023-05-27T00:19:52;12.50;;;10.70;;
14760;SDS011;7472;45.396;5.272;2023-05-27T00:22:20;14.40;;;9.45;;
14760;SDS011;7472;45.396;5.272;2023-05-27T00:24:48;12.70;;;9.55;;
14760;SDS011;7472;45.396;5.272;2023-05-27T00:27:15;11.02;;;9.80;;
14760;SDS011;7472;45.396;5.272;2023-05-27T00:29:42;11.70;;;9.55;;
14760;SDS011;7472;45.396;5.272;2023-05-27T00:32:11;17.48;;;9.90;;
14760;SDS011;7472;45.396;5.272;2023-05-27T00:34:38;10.38;;;9.10;;
14760;SDS011;7472;45.396;5.272;2023-05-27T00:37:06;11.23;;;9.57;;
14760;SDS011;7472;45.396;5.272;2023-05-27T00:39:33;13.48;;;9.43;;
14760;SDS011;7472;45.396;5.272;2023-05-27T00:42:01;14.90;;;9.95;;
14760;SDS011;7472;45.396;5.272;2023-05-27T00:44:28;11.30;;;9.85;;
14760;SDS011;7472;45.396;5.272;2023-05-27T00:46:56;10.43;;;9.43;;
14760;SDS011;7472;45.396;5.272;2023-05-27T00:49:24;12.02;;;9.20;;
14760;SDS011;7472;45.396;5.272;2023-05-27T00:51:52;11.73;;;10.55;;
14760;SDS011;7472;45.396;5.272;2023-05-27T00:54:19;13.27;;;10.65;;
14760;SDS011;7472;45.396;5.272;2023-05-27T00:56:47;13.50;;;10.10;;
14760;SDS011;7472;45.396;5.272;2023-05-27T00:59:14;16.38;;;11.55;;
14760;SDS011;7472;45.396;5.272;2023-05-27T01:01:42;11.75;;;10.43;;
14760;SDS011;7472;45.396;5.272;2023-05-27T01:04:10;15.65;;;11.15;;
14760;SDS011;7472;45.396;5.272;2023-05-27T01:06:42;14.32;;;10.25;;
14760;SDS011;7472;45.396;5.272;2023-05-27T01:09:11;12.02;;;10.10;;
14760;SDS011;7472;45.396;5.272;2023-05-27T01:11:43;11.65;;;10.45;;
14760;SDS011;7472;45.396;5.272;2023-05-27T01:14:12;14.98;;;10.85;;
14760;SDS011;7472;45.396;5.272;2023-05-27T01:16:40;13.45;;;11.25;;
14760;SDS011;7472;45.396;5.272;2023-05-27T01:19:12;15.80;;;11.07;;
14760;SDS011;7472;45.396;5.272;2023-05-27T01:21:43;11.13;;;10.00;;
14760;SDS011;7472;45.396;5.272;2023-05-27T01:24:17;13.98;;;12.07;;
14760;SDS011;7472;45.396;5.272;2023-05-27T01:26:45;12.68;;;10.18;;
14760;SDS011;7472;45.396;5.272;2023-05-27T01:29:13;14.25;;;10.68;;
14760;SDS011;7472;45.396;5.272;2023-05-27T01:31:41;13.52;;;10.82;;
14760;SDS011;7472;45.396;5.272;2023-05-27T01:34:10;16.60;;;12.00;;
14760;SDS011;7472;45.396;5.272;2023-05-27T01:36:41;12.43;;;11.00;;
14760;SDS011;7472;45.396;5.272;2023-05-27T01:39:11;12.27;;;11.07;;
14760;SDS011;7472;45.396;5.272;2023-05-27T01:41:40;14.20;;;11.35;;
14760;SDS011;7472;45.396;5.272;2023-05-27T01:44:09;17.50;;;11.20;;
14760;SDS011;7472;45.396;5.272;2023-05-27T01:46:37;11.27;;;10.23;;
14760;SDS011;7472;45.396;5.272;2023-05-27T01:49:04;13.15;;;10.73;;
14760;SDS011;7472;45.396;5.272;2023-05-27T01:51:31;13.30;;;10.95;;
14760;SDS011;7472;45.396;5.272;2023-05-27T01:53:59;13.43;;;11.90;;
14760;SDS011;7472;45.396;5.272;2023-05-27T01:56:26;12.15;;;10.88;;
14760;SDS011;7472;45.396;5.272;2023-05-27T01:58:55;13.52;;;11.15;;
14760;SDS011;7472;45.396;5.272;2023-05-27T02:01:23;12.20;;;11.02;;
14760;SDS011;7472;45.396;5.272;2023-05-27T02:03:50;13.45;;;10.73;;
14760;SDS011;7472;45.396;5.272;2023-05-27T02:06:18;14.43;;;11.50;;
14760;SDS011;7472;45.396;5.272;2023-05-27T02:08:45;12.20;;;11.00;;
14760;SDS011;7472;45.396;5.272;2023-05-27T02:11:12;18.65;;;10.60;;
14760;SDS011;7472;45.396;5.272;2023-05-27T02:13:40;12.63;;;11.00;;
14760;SDS011;7472;45.396;5.272;2023-05-27T02:16:09;12.95;;;10.70;;
14760;SDS011;7472;45.396;5.272;2023-05-27T02:18:37;17.75;;;11.05;;
14760;SDS011;7472;45.396;5.272;2023-05-27T02:21:05;13.43;;;11.70;;
14760;SDS011;7472;45.396;5.272;2023-05-27T02:23:33;17.35;;;11.63;;
14760;SDS011;7472;45.396;5.272;2023-05-27T02:26:01;14.07;;;11.13;;
14760;SDS011;7472;45.396;5.272;2023-05-27T02:28:28;13.82;;;11.57;;
14760;SDS011;7472;45.396;5.272;2023-05-27T02:30:56;11.70;;;10.50;;
14760;SDS011;7472;45.396;5.272;2023-05-27T02:33:25;13.90;;;11.93;;
14760;SDS011;7472;45.396;5.272;2023-05-27T02:35:53;15.18;;;10.65;;
14760;SDS011;7472;45.396;5.272;2023-05-27T02:38:20;13.98;;;11.00;;
14760;SDS011;7472;45.396;5.272;2023-05-27T02:40:47;18.60;;;11.75;;
14760;SDS011;7472;45.396;5.272;2023-05-27T02:43:16;12.57;;;11.18;;
14760;SDS011;7472;45.396;5.272;2023-05-27T02:45:43;13.73;;;11.15;;
14760;SDS011;7472;45.396;5.272;2023-05-27T02:48:10;16.63;;;11.73;;
14760;SDS011;7472;45.396;5.272;2023-05-27T02:50:39;13.38;;;10.45;;
14760;SDS011;7472;45.396;5.272;2023-05-27T02:53:07;13.40;;;11.98;;
14760;SDS011;7472;45.396;5.272;2023-05-27T02:55:35;15.48;;;11.00;;
14760;SDS011;7472;45.396;5.272;2023-05-27T02:58:02;15.55;;;12.48;;
14760;SDS011;7472;45.396;5.272;2023-05-27T03:00:30;13.38;;;11.85;;
14760;SDS011;7472;45.396;5.272;2023-05-27T03:02:57;17.00;;;12.57;;
14760;SDS011;7472;45.396;5.272;2023-05-27T03:05:25;13.65;;;11.93;;
14760;SDS011;7472;45.396;5.272;2023-05-27T03:07:54;13.13;;;11.70;;
14760;SDS011;7472;45.396;5.272;2023-05-27T03:10:21;13.43;;;11.65;;
14760;SDS011;7472;45.396;5.272;2023-05-27T03:12:48;15.40;;;11.52;;
14760;SDS011;7472;45.396;5.272;2023-05-27T03:15:16;14.23;;;10.85;;
14760;SDS011;7472;45.396;5.272;2023-05-27T03:17:44;16.13;;;10.98;;
14760;SDS011;7472;45.396;5.272;2023-05-27T03:20:11;15.05;;;11.98;;
14760;SDS011;7472;45.396;5.272;2023-05-27T03:22:39;13.45;;;12.02;;
14760;SDS011;7472;45.396;5.272;2023-05-27T03:25:08;13.68;;;12.05;;
14760;SDS011;7472;45.396;5.272;2023-05-27T03:27:36;14.05;;;10.98;;
14760;SDS011;7472;45.396;5.272;2023-05-27T03:30:04;16.45;;;12.23;;
14760;SDS011;7472;45.396;5.272;2023-05-27T03:32:32;13.75;;;12.23;;
14760;SDS011;7472;45.396;5.272;2023-05-27T03:34:59;16.30;;;12.35;;
14760;SDS011;7472;45.396;5.272;2023-05-27T03:37:27;13.93;;;11.98;;
14760;SDS011;7472;45.396;5.272;2023-05-27T03:39:54;16.88;;;11.70;;
14760;SDS011;7472;45.396;5.272;2023-05-27T03:42:23;16.02;;;11.73;;
14760;SDS011;7472;45.396;5.272;2023-05-27T03:44:51;14.57;;;11.95;;
14760;SDS011;7472;45.396;5.272;2023-05-27T03:47:18;12.95;;;11.55;;
14760;SDS011;7472;45.396;5.272;2023-05-27T03:49:46;14.63;;;12.90;;
14760;SDS011;7472;45.396;5.272;2023-05-27T03:52:14;17.67;;;10.95;;
14760;SDS011;7472;45.396;5.272;2023-05-27T03:54:41;13.55;;;11.50;;
14760;SDS011;7472;45.396;5.272;2023-05-27T03:57:09;16.67;;;12.13;;
14760;SDS011;7472;45.396;5.272;2023-05-27T03:59:37;15.35;;;10.85;;
14760;SDS011;7472;45.396;5.272;2023-05-27T04:02:05;22.00;;;11.88;;
14760;SDS011;7472;45.396;5.272;2023-05-27T04:04:32;13.98;;;11.63;;
14760;SDS011;7472;45.396;5.272;2023-05-27T04:07:00;14.65;;;12.15;;
14760;SDS011;7472;45.396;5.272;2023-05-27T04:09:28;13.55;;;12.02;;
14760;SDS011;7472;45.396;5.272;2023-05-27T04:11:56;16.85;;;12.40;;
14760;SDS011;7472;45.396;5.272;2023-05-27T04:14:23;18.02;;;11.65;;
14760;SDS011;7472;45.396;5.272;2023-05-27T04:16:52;14.63;;;11.68;;
14760;SDS011;7472;45.396;5.272;2023-05-27T04:19:20;15.15;;;12.43;;
14760;SDS011;7472;45.396;5.272;2023-05-27T04:21:47;11.80;;;10.63;;
14760;SDS011;7472;45.396;5.272;2023-05-27T04:24:14;13.70;;;11.27;;
14760;SDS011;7472;45.396;5.272;2023-05-27T04:26:42;14.68;;;10.93;;
14760;SDS011;7472;45.396;5.272;2023-05-27T04:29:11;14.57;;;12.20;;
14760;SDS011;7472;45.396;5.272;2023-05-27T04:31:38;16.92;;;11.38;;
14760;SDS011;7472;45.396;5.272;2023-05-27T04:34:07;12.95;;;10.88;;
14760;SDS011;7472;45.396;5.272;2023-05-27T04:36:34;16.02;;;11.27;;
14760;SDS011;7472;45.396;5.272;2023-05-27T04:39:02;15.73;;;10.85;;
14760;SDS011;7472;45.396;5.272;2023-05-27T04:41:30;13.30;;;11.70;;
14760;SDS011;7472;45.396;5.272;2023-05-27T04:43:58;13.50;;;12.02;;
14760;SDS011;7472;45.396;5.272;2023-05-27T04:46:26;24.88;;;12.85;;
14760;SDS011;7472;45.396;5.272;2023-05-27T04:48:54;13.70;;;11.00;;
14760;SDS011;7472;45.396;5.272;2023-05-27T04:51:22;14.20;;;12.15;;
14760;SDS011;7472;45.396;5.272;2023-05-27T04:53:50;13.65;;;11.27;;
14760;SDS011;7472;45.396;5.272;2023-05-27T04:56:17;18.58;;;11.55;;
14760;SDS011;7472;45.396;5.272;2023-05-27T04:58:45;14.77;;;11.75;;
14760;SDS011;7472;45.396;5.272;2023-05-27T05:01:13;12.60;;;11.23;;
14760;SDS011;7472;45.396;5.272;2023-05-27T05:03:43;15.20;;;11.80;;
14760;SDS011;7472;45.396;5.272;2023-05-27T05:06:18;13.13;;;11.75;;
14760;SDS011;7472;45.396;5.272;2023-05-27T05:08:48;14.90;;;11.77;;
14760;SDS011;7472;45.396;5.272;2023-05-27T05:11:16;14.48;;;11.90;;
14760;SDS011;7472;45.396;5.272;2023-05-27T05:13:44;14.50;;;11.25;;
14760;SDS011;7472;45.396;5.272;2023-05-27T05:16:11;14.50;;;11.40;;
14760;SDS011;7472;45.396;5.272;2023-05-27T05:18:38;13.93;;;10.85;;
14760;SDS011;7472;45.396;5.272;2023-05-27T05:21:06;13.10;;;10.57;;
14760;SDS011;7472;45.396;5.272;2023-05-27T05:23:33;16.40;;;11.98;;
14760;SDS011;7472;45.396;5.272;2023-05-27T05:26:02;11.23;;;10.15;;
14760;SDS011;7472;45.396;5.272;2023-05-27T05:28:31;12.38;;;9.50;;
14760;SDS011;7472;45.396;5.272;2023-05-27T05:31:00;13.10;;;10.88;;
14760;SDS011;7472;45.396;5.272;2023-05-27T05:33:28;16.65;;;12.52;;
14760;SDS011;7472;45.396;5.272;2023-05-27T05:35:55;14.20;;;11.73;;
14760;SDS011;7472;45.396;5.272;2023-05-27T05:38:22;14.77;;;11.48;;
14760;SDS011;7472;45.396;5.272;2023-05-27T05:40:50;19.73;;;12.27;;
14760;SDS011;7472;45.396;5.272;2023-05-27T05:43:20;15.48;;;12.07;;
14760;SDS011;7472;45.396;5.272;2023-05-27T05:45:48;15.38;;;12.25;;
14760;SDS011;7472;45.396;5.272;2023-05-27T05:48:15;14.65;;;12.57;;
14760;SDS011;7472;45.396;5.272;2023-05-27T05:50:42;13.35;;;11.32;;
14760;SDS011;7472;45.396;5.272;2023-05-27T05:53:10;14.50;;;11.30;;
14760;SDS011;7472;45.396;5.272;2023-05-27T05:55:37;14.15;;;10.88;;
14760;SDS011;7472;45.396;5.272;2023-05-27T05:58:05;14.65;;;9.40;;
14760;SDS011;7472;45.396;5.272;2023-05-27T06:00:34;15.13;;;8.95;;
14760;SDS011;7472;45.396;5.272;2023-05-27T06:03:02;12.80;;;9.30;;
14760;SDS011;7472;45.396;5.272;2023-05-27T06:05:29;13.63;;;12.27;;
14760;SDS011;7472;45.396;5.272;2023-05-27T06:07:56;14.27;;;12.77;;
14760;SDS011;7472;45.396;5.272;2023-05-27T06:10:24;15.45;;;13.15;;
14760;SDS011;7472;45.396;5.272;2023-05-27T06:12:51;13.77;;;12.48;;
14760;SDS011;7472;45.396;5.272;2023-05-27T06:15:19;15.35;;;13.07;;
14760;SDS011;7472;45.396;5.272;2023-05-27T06:17:47;16.00;;;13.30;;
14760;SDS011;7472;45.396;5.272;2023-05-27T06:20:15;14.40;;;12.95;;
14760;SDS011;7472;45.396;5.272;2023-05-27T06:22:43;15.80;;;11.52;;
14760;SDS011;7472;45.396;5.272;2023-05-27T06:25:12;13.43;;;12.13;;
14760;SDS011;7472;45.396;5.272;2023-05-27T06:27:39;15.75;;;12.98;;
14760;SDS011;7472;45.396;5.272;2023-05-27T06:30:07;16.75;;;12.52;;
14760;SDS011;7472;45.396;5.272;2023-05-27T06:32:34;16.48;;;12.63;;
14760;SDS011;7472;45.396;5.272;2023-05-27T06:35:04;13.60;;;12.18;;
14760;SDS011;7472;45.396;5.272;2023-05-27T06:37:31;14.02;;;12.63;;
14760;SDS011;7472;45.396;5.272;2023-05-27T06:39:58;17.10;;;11.52;;
14760;SDS011;7472;45.396;5.272;2023-05-27T06:42:26;11.55;;;10.23;;
14760;SDS011;7472;45.396;5.272;2023-05-27T06:44:53;11.20;;;10.13;;
14760;SDS011;7472;45.396;5.272;2023-05-27T06:47:21;16.17;;;9.95;;
14760;SDS011;7472;45.396;5.272;2023-05-27T06:49:48;11.00;;;9.10;;
14760;SDS011;7472;45.396;5.272;2023-05-27T06:52:17;11.00;;;9.63;;
14760;SDS011;7472;45.396;5.272;2023-05-27T06:54:44;10.73;;;9.25;;
14760;SDS011;7472;45.396;5.272;2023-05-27T06:57:12;10.10;;;9.00;;
14760;SDS011;7472;45.396;5.272;2023-05-27T06:59:39;12.38;;;9.90;;
14760;SDS011;7472;45.396;5.272;2023-05-27T07:02:08;12.05;;;10.43;;
14760;SDS011;7472;45.396;5.272;2023-05-27T07:04:36;12.77;;;10.32;;
14760;SDS011;7472;45.396;5.272;2023-05-27T07:07:03;12.70;;;10.30;;
14760;SDS011;7472;45.396;5.272;2023-05-27T07:09:32;12.35;;;9.70;;
14760;SDS011;7472;45.396;5.272;2023-05-27T07:12:00;13.23;;;10.13;;
14760;SDS011;7472;45.396;5.272;2023-05-27T07:14:28;11.05;;;8.70;;
14760;SDS011;7472;45.396;5.272;2023-05-27T07:16:55;8.90;;;7.93;;
14760;SDS011;7472;45.396;5.272;2023-05-27T07:19:22;16.10;;;8.60;;
14760;SDS011;7472;45.396;5.272;2023-05-27T07:21:50;10.73;;;8.65;;
14760;SDS011;7472;45.396;5.272;2023-05-27T07:24:17;11.20;;;8.73;;
14760;SDS011;7472;45.396;5.272;2023-05-27T07:26:46;9.23;;;8.30;;
14760;SDS011;7472;45.396;5.272;2023-05-27T07:29:13;13.10;;;8.35;;
14760;SDS011;7472;45.396;5.272;2023-05-27T07:31:41;12.90;;;9.60;;
14760;SDS011;7472;45.396;5.272;2023-05-27T07:34:08;10.60;;;8.07;;
14760;SDS011;7472;45.396;5.272;2023-05-27T07:36:36;9.63;;;8.60;;
14760;SDS011;7472;45.396;5.272;2023-05-27T07:39:03;13.45;;;10.02;;
14760;SDS011;7472;45.396;5.272;2023-05-27T07:41:30;9.73;;;8.50;;
14760;SDS011;7472;45.396;5.272;2023-05-27T07:43:59;10.38;;;8.25;;
14760;SDS011;7472;45.396;5.272;2023-05-27T07:46:27;11.23;;;8.90;;
14760;SDS011;7472;45.396;5.272;2023-05-27T07:48:55;10.95;;;8.90;;
14760;SDS011;7472;45.396;5.272;2023-05-27T07:51:22;13.18;;;8.57;;
14760;SDS011;7472;45.396;5.272;2023-05-27T07:53:50;9.13;;;8.05;;
14760;SDS011;7472;45.396;5.272;2023-05-27T07:56:17;11.93;;;8.20;;
14760;SDS011;7472;45.396;5.272;2023-05-27T07:58:44;9.57;;;7.85;;
14760;SDS011;7472;45.396;5.272;2023-05-27T08:01:13;11.13;;;8.23;;
14760;SDS011;7472;45.396;5.272;2023-05-27T08:03:41;10.27;;;7.85;;
14760;SDS011;7472;45.396;5.272;2023-05-27T08:06:08;14.52;;;8.68;;
14760;SDS011;7472;45.396;5.272;2023-05-27T08:08:35;12.05;;;8.32;;
14760;SDS011;7472;45.396;5.272;2023-05-27T08:11:03;9.50;;;8.38;;
14760;SDS011;7472;45.396;5.272;2023-05-27T08:13:30;11.52;;;8.52;;
14760;SDS011;7472;45.396;5.272;2023-05-27T08:15:58;11.05;;;8.63;;
14760;SDS011;7472;45.396;5.272;2023-05-27T08:18:26;11.50;;;8.15;;
14760;SDS011;7472;45.396;5.272;2023-05-27T08:20:54;9.05;;;7.70;;
14760;SDS011;7472;45.396;5.272;2023-05-27T08:23:21;8.95;;;8.05;;
14760;SDS011;7472;45.396;5.272;2023-05-27T08:25:50;11.27;;;9.05;;
14760;SDS011;7472;45.396;5.272;2023-05-27T08:28:17;10.23;;;8.45;;
14760;SDS011;7472;45.396;5.272;2023-05-27T08:30:45;9.48;;;8.57;;
14760;SDS011;7472;45.396;5.272;2023-05-27T08:33:12;10.35;;;8.63;;
14760;SDS011;7472;45.396;5.272;2023-05-27T08:35:41;10.07;;;8.00;;
14760;SDS011;7472;45.396;5.272;2023-05-27T08:38:09;13.40;;;8.48;;
14760;SDS011;7472;45.396;5.272;2023-05-27T08:40:36;9.07;;;8.00;;
14760;SDS011;7472;45.396;5.272;2023-05-27T08:43:05;11.48;;;8.13;;
14760;SDS011;7472;45.396;5.272;2023-05-27T08:45:33;9.13;;;8.25;;
14760;SDS011;7472;45.396;5.272;2023-05-27T08:48:01;10.55;;;8.02;;
14760;SDS011;7472;45.396;5.272;2023-05-27T08:50:28;9.25;;;8.35;;
14760;SDS011;7472;45.396;5.272;2023-05-27T08:52:57;9.93;;;8.10;;
14760;SDS011;7472;45.396;5.272;2023-05-27T08:55:25;8.52;;;7.72;;
14760;SDS011;7472;45.396;5.272;2023-05-27T08:57:54;11.02;;;8.00;;
14760;SDS011;7472;45.396;5.272;2023-05-27T09:00:24;9.32;;;7.80;;
14760;SDS011;7472;45.396;5.272;2023-05-27T09:02:52;11.23;;;7.75;;
14760;SDS011;7472;45.396;5.272;2023-05-27T09:05:21;9.55;;;8.07;;
14760;SDS011;7472;45.396;5.272;2023-05-27T09:07:49;8.77;;;6.97;;
14760;SDS011;7472;45.396;5.272;2023-05-27T09:10:18;10.20;;;7.38;;
14760;SDS011;7472;45.396;5.272;2023-05-27T09:12:45;10.35;;;7.82;;
14760;SDS011;7472;45.396;5.272;2023-05-27T09:15:12;9.23;;;7.22;;
14760;SDS011;7472;45.396;5.272;2023-05-27T09:17:40;11.95;;;8.02;;
14760;SDS011;7472;45.396;5.272;2023-05-27T09:20:08;8.88;;;7.72;;
14760;SDS011;7472;45.396;5.272;2023-05-27T09:22:37;7.72;;;6.95;;
14760;SDS011;7472;45.396;5.272;2023-05-27T09:25:05;11.35;;;7.45;;
14760;SDS011;7472;45.396;5.272;2023-05-27T09:27:34;12.40;;;7.47;;
14760;SDS011;7472;45.396;5.272;2023-05-27T09:30:08;8.25;;;7.43;;
14760;SDS011;7472;45.396;5.272;2023-05-27T09:32:36;9.52;;;7.28;;
14760;SDS011;7472;45.396;5.272;2023-05-27T09:35:05;9.40;;;7.25;;
14760;SDS011;7472;45.396;5.272;2023-05-27T09:37:33;9.38;;;7.68;;
14760;SDS011;7472;45.396;5.272;2023-05-27T09:40:04;7.60;;;6.72;;
14760;SDS011;7472;45.396;5.272;2023-05-27T09:42:43;11.70;;;7.60;;
14760;SDS011;7472;45.396;5.272;2023-05-27T09:47:39;9.18;;;7.13;;
14760;SDS011;7472;45.396;5.272;2023-05-27T09:50:07;12.02;;;7.07;;
14760;SDS011;7472;45.396;5.272;2023-05-27T09:52:36;8.35;;;7.38;;
14760;SDS011;7472;45.396;5.272;2023-05-27T09:55:06;9.90;;;7.95;;
14760;SDS011;7472;45.396;5.272;2023-05-27T09:57:36;9.68;;;6.78;;
14760;SDS011;7472;45.396;5.272;2023-05-27T10:00:05;8.57;;;7.57;;
14760;SDS011;7472;45.396;5.272;2023-05-27T10:02:38;9.25;;;8.30;;
14760;SDS011;7472;45.396;5.272;2023-05-27T10:05:06;11.52;;;7.90;;
14760;SDS011;7472;45.396;5.272;2023-05-27T10:07:36;11.05;;;7.82;;
14760;SDS011;7472;45.396;5.272;2023-05-27T10:10:05;9.98;;;7.45;;
14760;SDS011;7472;45.396;5.272;2023-05-27T10:12:33;9.32;;;8.27;;
14760;SDS011;7472;45.396;5.272;2023-05-27T10:15:01;9.40;;;7.78;;
14760;SDS011;7472;45.396;5.272;2023-05-27T10:17:40;8.63;;;7.43;;
14760;SDS011;7472;45.396;5.272;2023-05-27T10:20:09;9.52;;;8.20;;
14760;SDS011;7472;45.396;5.272;2023-05-27T10:22:42;10.90;;;7.43;;
14760;SDS011;7472;45.396;5.272;2023-05-27T10:25:13;8.68;;;7.10;;
14760;SDS011;7472;45.396;5.272;2023-05-27T10:27:42;9.70;;;7.15;;
14760;SDS011;7472;45.396;5.272;2023-05-27T10:30:10;8.93;;;7.57;;
14760;SDS011;7472;45.396;5.272;2023-05-27T10:32:43;8.50;;;7.70;;
14760;SDS011;7472;45.396;5.272;2023-05-27T10:35:11;9.45;;;7.45;;
14760;SDS011;7472;45.396;5.272;2023-05-27T10:37:38;8.68;;;7.45;;
14760;SDS011;7472;45.396;5.272;2023-05-27T10:40:08;11.25;;;6.85;;
14760;SDS011;7472;45.396;5.272;2023-05-27T10:42:36;9.60;;;7.55;;
14760;SDS011;7472;45.396;5.272;2023-05-27T10:45:04;9.18;;;8.07;;
14760;SDS011;7472;45.396;5.272;2023-05-27T10:47:34;10.90;;;8.55;;
14760;SDS011;7472;45.396;5.272;2023-05-27T10:50:13;9.00;;;6.93;;
14760;SDS011;7472;45.396;5.272;2023-05-27T10:52:41;11.93;;;7.47;;
14760;SDS011;7472;45.396;5.272;2023-05-27T10:55:08;11.85;;;7.93;;
14760;SDS011;7472;45.396;5.272;2023-05-27T10:57:36;10.70;;;8.25;;
14760;SDS011;7472;45.396;5.272;2023-05-27T11:00:04;9.05;;;7.57;;
14760;SDS011;7472;45.396;5.272;2023-05-27T11:02:34;11.35;;;8.27;;
14760;SDS011;7472;45.396;5.272;2023-05-27T11:05:07;11.27;;;8.15;;
14760;SDS011;7472;45.396;5.272;2023-05-27T11:07:37;9.48;;;7.28;;
14760;SDS011;7472;45.396;5.272;2023-05-27T11:10:06;9.07;;;7.70;;
14760;SDS011;7472;45.396;5.272;2023-05-27T11:12:34;10.95;;;7.47;;
14760;SDS011;7472;45.396;5.272;2023-05-27T11:15:02;10.82;;;7.75;;
14760;SDS011;7472;45.396;5.272;2023-05-27T11:17:29;9.02;;;7.60;;
14760;SDS011;7472;45.396;5.272;2023-05-27T11:19:57;9.30;;;8.30;;
14760;SDS011;7472;45.396;5.272;2023-05-27T11:22:24;9.55;;;7.50;;
14760;SDS011;7472;45.396;5.272;2023-05-27T11:24:57;8.95;;;8.07;;
14760;SDS011;7472;45.396;5.272;2023-05-27T11:27:25;10.52;;;8.45;;
14760;SDS011;7472;45.396;5.272;2023-05-27T11:29:59;9.85;;;7.88;;
14760;SDS011;7472;45.396;5.272;2023-05-27T11:32:32;9.75;;;7.63;;
14760;SDS011;7472;45.396;5.272;2023-05-27T11:35:00;8.45;;;7.55;;
14760;SDS011;7472;45.396;5.272;2023-05-27T11:37:30;9.40;;;7.82;;
14760;SDS011;7472;45.396;5.272;2023-05-27T11:39:59;9.90;;;8.20;;
14760;SDS011;7472;45.396;5.272;2023-05-27T11:42:28;10.25;;;7.07;;
14760;SDS011;7472;45.396;5.272;2023-05-27T11:44:56;8.02;;;7.13;;
14760;SDS011;7472;45.396;5.272;2023-05-27T11:47:25;9.13;;;7.43;;
14760;SDS011;7472;45.396;5.272;2023-05-27T11:49:52;7.93;;;7.22;;
14760;SDS011;7472;45.396;5.272;2023-05-27T11:52:20;9.50;;;6.88;;
14760;SDS011;7472;45.396;5.272;2023-05-27T11:54:51;7.78;;;6.97;;
14760;SDS011;7472;45.396;5.272;2023-05-27T11:57:20;8.52;;;6.30;;
14760;SDS011;7472;45.396;5.272;2023-05-27T11:59:48;7.57;;;6.43;;
14760;SDS011;7472;45.396;5.272;2023-05-27T12:02:15;8.50;;;6.93;;
14760;SDS011;7472;45.396;5.272;2023-05-27T12:04:42;8.70;;;6.47;;
14760;SDS011;7472;45.396;5.272;2023-05-27T12:07:10;9.93;;;6.82;;
14760;SDS011;7472;45.396;5.272;2023-05-27T12:09:39;8.35;;;7.05;;
14760;SDS011;7472;45.396;5.272;2023-05-27T12:12:06;10.45;;;6.55;;
14760;SDS011;7472;45.396;5.272;2023-05-27T12:14:35;8.77;;;6.32;;
14760;SDS011;7472;45.396;5.272;2023-05-27T12:17:03;7.47;;;6.15;;
14760;SDS011;7472;45.396;5.272;2023-05-27T12:19:30;7.57;;;6.57;;
14760;SDS011;7472;45.396;5.272;2023-05-27T12:21:59;9.13;;;6.10;;
14760;SDS011;7472;45.396;5.272;2023-05-27T12:24:26;7.53;;;6.13;;
14760;SDS011;7472;45.396;5.272;2023-05-27T12:26:54;8.25;;;6.13;;
14760;SDS011;7472;45.396;5.272;2023-05-27T12:29:22;8.70;;;5.60;;
14760;SDS011;7472;45.396;5.272;2023-05-27T12:31:52;7.80;;;6.22;;
14760;SDS011;7472;45.396;5.272;2023-05-27T12:34:20;9.95;;;6.50;;
14760;SDS011;7472;45.396;5.272;2023-05-27T12:36:48;7.72;;;5.75;;
14760;SDS011;7472;45.396;5.272;2023-05-27T12:39:16;7.68;;;5.88;;
14760;SDS011;7472;45.396;5.272;2023-05-27T12:41:45;9.60;;;6.28;;
14760;SDS011;7472;45.396;5.272;2023-05-27T12:44:12;8.90;;;6.13;;
14760;SDS011;7472;45.396;5.272;2023-05-27T12:46:40;5.97;;;5.38;;
14760;SDS011;7472;45.396;5.272;2023-05-27T12:49:09;7.03;;;5.93;;
14760;SDS011;7472;45.396;5.272;2023-05-27T12:51:36;7.45;;;5.45;;
14760;SDS011;7472;45.396;5.272;2023-05-27T12:54:04;9.02;;;6.38;;
14760;SDS011;7472;45.396;5.272;2023-05-27T12:56:31;8.85;;;6.07;;
14760;SDS011;7472;45.396;5.272;2023-05-27T12:58:59;6.68;;;6.07;;
14760;SDS011;7472;45.396;5.272;2023-05-27T13:01:26;6.93;;;6.32;;
14760;SDS011;7472;45.396;5.272;2023-05-27T13:03:54;10.40;;;5.80;;
14760;SDS011;7472;45.396;5.272;2023-05-27T13:06:23;17.05;;;6.72;;
14760;SDS011;7472;45.396;5.272;2023-05-27T13:08:52;8.98;;;6.22;;
14760;SDS011;7472;45.396;5.272;2023-05-27T13:11:19;7.65;;;5.82;;
14760;SDS011;7472;45.396;5.272;2023-05-27T13:13:47;7.60;;;5.80;;
14760;SDS011;7472;45.396;5.272;2023-05-27T13:16:14;7.43;;;6.35;;
14760;SDS011;7472;45.396;5.272;2023-05-27T13:18:42;6.40;;;5.80;;
14760;SDS011;7472;45.396;5.272;2023-05-27T13:21:09;9.52;;;6.13;;
14760;SDS011;7472;45.396;5.272;2023-05-27T13:23:38;9.35;;;5.88;;
14760;SDS011;7472;45.396;5.272;2023-05-27T13:26:05;10.20;;;6.50;;
14760;SDS011;7472;45.396;5.272;2023-05-27T13:28:33;7.90;;;5.68;;
14760;SDS011;7472;45.396;5.272;2023-05-27T13:31:02;7.15;;;6.45;;
14760;SDS011;7472;45.396;5.272;2023-05-27T13:33:30;7.57;;;6.30;;
14760;SDS011;7472;45.396;5.272;2023-05-27T13:35:59;6.40;;;5.72;;
14760;SDS011;7472;45.396;5.272;2023-05-27T13:38:26;8.73;;;6.32;;
14760;SDS011;7472;45.396;5.272;2023-05-27T13:40:55;6.65;;;5.65;;
14760;SDS011;7472;45.396;5.272;2023-05-27T13:43:24;7.70;;;6.60;;
14760;SDS011;7472;45.396;5.272;2023-05-27T13:45:52;7.50;;;5.80;;
14760;SDS011;7472;45.396;5.272;2023-05-27T13:48:19;9.48;;;6.18;;
14760;SDS011;7472;45.396;5.272;2023-05-27T13:50:46;6.28;;;5.68;;
14760;SDS011;7472;45.396;5.272;2023-05-27T13:53:16;6.43;;;5.70;;
14760;SDS011;7472;45.396;5.272;2023-05-27T13:55:46;8.45;;;6.47;;
14760;SDS011;7472;45.396;5.272;2023-05-27T13:58:15;6.40;;;5.68;;
14760;SDS011;7472;45.396;5.272;2023-05-27T14:00:45;7.35;;;5.28;;
14760;SDS011;7472;45.396;5.272;2023-05-27T14:03:12;6.93;;;5.90;;
14760;SDS011;7472;45.396;5.272;2023-05-27T14:05:39;8.45;;;5.63;;
14760;SDS011;7472;45.396;5.272;2023-05-27T14:08:07;6.60;;;5.93;;
14760;SDS011;7472;45.396;5.272;2023-05-27T14:10:34;6.45;;;5.85;;
14760;SDS011;7472;45.396;5.272;2023-05-27T14:13:02;6.82;;;5.60;;
14760;SDS011;7472;45.396;5.272;2023-05-27T14:15:31;6.07;;;5.18;;
14760;SDS011;7472;45.396;5.272;2023-05-27T14:17:59;7.00;;;5.30;;
14760;SDS011;7472;45.396;5.272;2023-05-27T14:20:26;7.22;;;5.60;;
14760;SDS011;7472;45.396;5.272;2023-05-27T14:22:54;6.57;;;6.07;;
14760;SDS011;7472;45.396;5.272;2023-05-27T14:25:22;8.60;;;6.13;;
14760;SDS011;7472;45.396;5.272;2023-05-27T14:27:49;6.65;;;6.05;;
14760;SDS011;7472;45.396;5.272;2023-05-27T14:30:16;9.98;;;6.10;;
14760;SDS011;7472;45.396;5.272;2023-05-27T14:32:45;6.22;;;5.30;;
14760;SDS011;7472;45.396;5.272;2023-05-27T14:35:13;7.50;;;6.07;;
14760;SDS011;7472;45.396;5.272;2023-05-27T14:37:41;7.28;;;6.03;;
14760;SDS011;7472;45.396;5.272;2023-05-27T14:40:08;6.45;;;5.53;;
14760;SDS011;7472;45.396;5.272;2023-05-27T14:42:36;7.70;;;5.57;;
14760;SDS011;7472;45.396;5.272;2023-05-27T14:45:03;8.82;;;5.30;;
14760;SDS011;7472;45.396;5.272;2023-05-27T14:47:31;6.00;;;5.50;;
14760;SDS011;7472;45.396;5.272;2023-05-27T14:50:00;9.77;;;5.95;;
14760;SDS011;7472;45.396;5.272;2023-05-27T14:52:27;5.90;;;5.22;;
14760;SDS011;7472;45.396;5.272;2023-05-27T14:54:55;6.15;;;5.55;;